sensor_id;sensor_type;location;lat;lon;timestamp;P1;durP1;ratioP1;P2;durP2;ratioP2
62633;SDS011;48704;50.534;6.442;2022-11-20T00:00:05;22.35;;;8.27;;
62633;SDS011;48704;50.534;6.442;2022-11-20T00:02:30;21.17;;;8.80;;
62633;SDS011;48704;50.534;6.442;2022-11-20T00:04:56;22.08;;;8.57;;
62633;SDS011;48704;50.534;6.442;2022-11-20T00:07:21;20.10;;;8.20;;
62633;SDS011;48704;50.534;6.442;2022-11-20T00:09:46;17.25;;;6.68;;
62633;SDS011;48704;50.534;6.442;2022-11-20T00:12:11;36.08;;;7.80;;
62633;SDS011;48704;50.534;6.442;2022-11-20T00:14:37;16.55;;;6.93;;
62633;SDS011;48704;50.534;6.442;2022-11-20T00:17:02;29.33;;;7.65;;
62633;SDS011;48704;50.534;6.442;2022-11-20T00:19:27;17.55;;;7.35;;
62633;SDS011;48704;50.534;6.442;2022-11-20T00:21:53;30.00;;;7.43;;
62633;SDS011;48704;50.534;6.442;2022-11-20T00:24:20;19.33;;;7.20;;
62633;SDS011;48704;50.534;6.442;2022-11-20T00:26:45;16.67;;;8.07;;
62633;SDS011;48704;50.534;6.442;2022-11-20T00:29:11;18.80;;;7.55;;
62633;SDS011;48704;50.534;6.442;2022-11-20T00:31:36;25.67;;;7.28;;
62633;SDS011;48704;50.534;6.442;2022-11-20T00:34:01;14.23;;;6.43;;
62633;SDS011;48704;50.534;6.442;2022-11-20T00:36:27;27.05;;;7.00;;
62633;SDS011;48704;50.534;6.442;2022-11-20T00:38:54;33.58;;;7.07;;
62633;SDS011;48704;50.534;6.442;2022-11-20T00:41:21;18.98;;;7.05;;
62633;SDS011;48704;50.534;6.442;2022-11-20T00:43:47;19.58;;;6.30;;
62633;SDS011;48704;50.534;6.442;2022-11-20T00:46:14;17.50;;;7.15;;
62633;SDS011;48704;50.534;6.442;2022-11-20T00:48:41;14.98;;;7.03;;
62633;SDS011;48704;50.534;6.442;2022-11-20T00:51:08;15.93;;;5.90;;
62633;SDS011;48704;50.534;6.442;2022-11-20T00:53:33;15.25;;;6.75;;
62633;SDS011;48704;50.534;6.442;2022-11-20T00:55:59;17.27;;;6.70;;
62633;SDS011;48704;50.534;6.442;2022-11-20T00:58:30;17.48;;;6.40;;
62633;SDS011;48704;50.534;6.442;2022-11-20T01:01:01;16.35;;;7.25;;
62633;SDS011;48704;50.534;6.442;2022-11-20T01:03:33;35.50;;;7.40;;
62633;SDS011;48704;50.534;6.442;2022-11-20T01:06:10;15.63;;;6.60;;
62633;SDS011;48704;50.534;6.442;2022-11-20T01:08:37;16.05;;;6.72;;
62633;SDS011;48704;50.534;6.442;2022-11-20T01:11:08;14.80;;;6.53;;
62633;SDS011;48704;50.534;6.442;2022-11-20T01:13:35;16.00;;;6.45;;
62633;SDS011;48704;50.534;6.442;2022-11-20T01:16:05;14.93;;;6.43;;
62633;SDS011;48704;50.534;6.442;2022-11-20T01:18:43;15.25;;;5.95;;
62633;SDS011;48704;50.534;6.442;2022-11-20T01:21:11;17.00;;;5.32;;
62633;SDS011;48704;50.534;6.442;2022-11-20T01:23:39;16.38;;;5.43;;
62633;SDS011;48704;50.534;6.442;2022-11-20T01:26:06;15.52;;;5.78;;
62633;SDS011;48704;50.534;6.442;2022-11-20T01:28:33;12.75;;;5.43;;
62633;SDS011;48704;50.534;6.442;2022-11-20T01:30:59;15.50;;;5.47;;
62633;SDS011;48704;50.534;6.442;2022-11-20T01:33:25;15.23;;;4.85;;
62633;SDS011;48704;50.534;6.442;2022-11-20T01:35:51;11.90;;;4.55;;
62633;SDS011;48704;50.534;6.442;2022-11-20T01:38:17;14.40;;;4.93;;
62633;SDS011;48704;50.534;6.442;2022-11-20T01:40:42;16.13;;;4.97;;
62633;SDS011;48704;50.534;6.442;2022-11-20T01:43:12;11.55;;;4.97;;
62633;SDS011;48704;50.534;6.442;2022-11-20T01:48:53;11.98;;;5.32;;
62633;SDS011;48704;50.534;6.442;2022-11-20T01:54:27;11.15;;;5.13;;
62633;SDS011;48704;50.534;6.442;2022-11-20T01:56:58;19.05;;;5.63;;
62633;SDS011;48704;50.534;6.442;2022-11-20T01:59:25;14.57;;;5.85;;
62633;SDS011;48704;50.534;6.442;2022-11-20T02:01:52;15.00;;;5.68;;
62633;SDS011;48704;50.534;6.442;2022-11-20T02:04:18;15.88;;;5.55;;
62633;SDS011;48704;50.534;6.442;2022-11-20T02:06:46;13.90;;;5.80;;
62633;SDS011;48704;50.534;6.442;2022-11-20T02:09:14;12.90;;;5.75;;
62633;SDS011;48704;50.534;6.442;2022-11-20T02:11:40;26.42;;;6.20;;
62633;SDS011;48704;50.534;6.442;2022-11-20T02:14:06;11.55;;;4.82;;
62633;SDS011;48704;50.534;6.442;2022-11-20T02:17:06;16.02;;;6.93;;
62633;SDS011;48704;50.534;6.442;2022-11-20T02:19:26;13.20;;;5.85;;
62633;SDS011;48704;50.534;6.442;2022-11-20T02:22:04;14.57;;;5.97;;
62633;SDS011;48704;50.534;6.442;2022-11-20T02:24:32;25.27;;;6.57;;
62633;SDS011;48704;50.534;6.442;2022-11-20T02:27:06;11.95;;;5.53;;
62633;SDS011;48704;50.534;6.442;2022-11-20T02:29:46;14.75;;;6.10;;
62633;SDS011;48704;50.534;6.442;2022-11-20T02:32:22;12.80;;;6.00;;
62633;SDS011;48704;50.534;6.442;2022-11-20T02:34:52;16.60;;;5.53;;
62633;SDS011;48704;50.534;6.442;2022-11-20T02:37:17;12.43;;;5.13;;
62633;SDS011;48704;50.534;6.442;2022-11-20T02:39:44;11.07;;;5.13;;
62633;SDS011;48704;50.534;6.442;2022-11-20T02:42:12;14.02;;;5.38;;
62633;SDS011;48704;50.534;6.442;2022-11-20T02:44:38;13.13;;;5.63;;
62633;SDS011;48704;50.534;6.442;2022-11-20T02:47:03;12.00;;;4.15;;
62633;SDS011;48704;50.534;6.442;2022-11-20T02:49:29;9.57;;;4.03;;
62633;SDS011;48704;50.534;6.442;2022-11-20T02:51:54;11.55;;;4.25;;
62633;SDS011;48704;50.534;6.442;2022-11-20T02:54:19;19.48;;;4.70;;
62633;SDS011;48704;50.534;6.442;2022-11-20T02:56:45;13.13;;;4.55;;
62633;SDS011;48704;50.534;6.442;2022-11-20T02:59:10;21.40;;;5.38;;
62633;SDS011;48704;50.534;6.442;2022-11-20T03:01:35;13.07;;;5.60;;
62633;SDS011;48704;50.534;6.442;2022-11-20T03:04:00;14.40;;;4.57;;
62633;SDS011;48704;50.534;6.442;2022-11-20T03:06:26;14.20;;;5.65;;
62633;SDS011;48704;50.534;6.442;2022-11-20T03:08:51;13.48;;;5.60;;
62633;SDS011;48704;50.534;6.442;2022-11-20T03:11:16;18.65;;;5.57;;
62633;SDS011;48704;50.534;6.442;2022-11-20T03:13:42;13.55;;;5.93;;
62633;SDS011;48704;50.534;6.442;2022-11-20T03:16:12;15.38;;;6.25;;
62633;SDS011;48704;50.534;6.442;2022-11-20T03:18:39;12.90;;;5.63;;
62633;SDS011;48704;50.534;6.442;2022-11-20T03:21:05;19.48;;;5.93;;
62633;SDS011;48704;50.534;6.442;2022-11-20T03:23:33;55.92;;;6.30;;
62633;SDS011;48704;50.534;6.442;2022-11-20T03:28:51;16.83;;;6.45;;
62633;SDS011;48704;50.534;6.442;2022-11-20T03:31:18;17.15;;;5.90;;
62633;SDS011;48704;50.534;6.442;2022-11-20T03:33:45;14.80;;;6.55;;
62633;SDS011;48704;50.534;6.442;2022-11-20T03:36:12;26.10;;;5.80;;
62633;SDS011;48704;50.534;6.442;2022-11-20T03:38:38;19.52;;;6.28;;
62633;SDS011;48704;50.534;6.442;2022-11-20T03:41:06;15.95;;;6.18;;
62633;SDS011;48704;50.534;6.442;2022-11-20T03:43:33;17.05;;;5.35;;
62633;SDS011;48704;50.534;6.442;2022-11-20T03:45:59;25.02;;;6.30;;
62633;SDS011;48704;50.534;6.442;2022-11-20T03:48:24;16.92;;;6.43;;
62633;SDS011;48704;50.534;6.442;2022-11-20T03:50:51;25.17;;;6.45;;
62633;SDS011;48704;50.534;6.442;2022-11-20T03:53:17;29.90;;;7.80;;
62633;SDS011;48704;50.534;6.442;2022-11-20T03:55:42;16.00;;;5.50;;
62633;SDS011;48704;50.534;6.442;2022-11-20T03:58:08;17.50;;;5.28;;
62633;SDS011;48704;50.534;6.442;2022-11-20T04:00:34;15.27;;;5.13;;
62633;SDS011;48704;50.534;6.442;2022-11-20T04:03:00;14.90;;;5.55;;
62633;SDS011;48704;50.534;6.442;2022-11-20T04:05:26;14.65;;;5.82;;
62633;SDS011;48704;50.534;6.442;2022-11-20T04:07:51;12.75;;;5.35;;
62633;SDS011;48704;50.534;6.442;2022-11-20T04:10:16;15.07;;;5.55;;
62633;SDS011;48704;50.534;6.442;2022-11-20T04:12:42;11.95;;;5.07;;
62633;SDS011;48704;50.534;6.442;2022-11-20T04:15:07;11.55;;;4.55;;
62633;SDS011;48704;50.534;6.442;2022-11-20T04:17:33;14.52;;;5.82;;
62633;SDS011;48704;50.534;6.442;2022-11-20T04:19:58;11.00;;;5.00;;
62633;SDS011;48704;50.534;6.442;2022-11-20T04:22:23;12.30;;;5.20;;
62633;SDS011;48704;50.534;6.442;2022-11-20T04:24:49;11.02;;;4.15;;
62633;SDS011;48704;50.534;6.442;2022-11-20T04:27:14;13.02;;;4.68;;
62633;SDS011;48704;50.534;6.442;2022-11-20T04:29:39;10.73;;;4.10;;
62633;SDS011;48704;50.534;6.442;2022-11-20T04:32:05;11.32;;;4.18;;
62633;SDS011;48704;50.534;6.442;2022-11-20T04:34:30;11.85;;;4.40;;
62633;SDS011;48704;50.534;6.442;2022-11-20T04:36:55;11.82;;;4.55;;
62633;SDS011;48704;50.534;6.442;2022-11-20T04:39:21;9.75;;;4.80;;
62633;SDS011;48704;50.534;6.442;2022-11-20T04:41:46;11.02;;;3.78;;
62633;SDS011;48704;50.534;6.442;2022-11-20T04:44:11;11.57;;;4.55;;
62633;SDS011;48704;50.534;6.442;2022-11-20T04:46:38;11.38;;;4.45;;
62633;SDS011;48704;50.534;6.442;2022-11-20T04:49:07;10.07;;;4.30;;
62633;SDS011;48704;50.534;6.442;2022-11-20T04:51:33;11.30;;;4.53;;
62633;SDS011;48704;50.534;6.442;2022-11-20T04:53:59;10.80;;;4.18;;
62633;SDS011;48704;50.534;6.442;2022-11-20T04:56:25;7.63;;;3.42;;
62633;SDS011;48704;50.534;6.442;2022-11-20T04:58:50;8.02;;;4.35;;
62633;SDS011;48704;50.534;6.442;2022-11-20T05:01:17;12.00;;;4.47;;
62633;SDS011;48704;50.534;6.442;2022-11-20T05:03:44;6.78;;;3.22;;
62633;SDS011;48704;50.534;6.442;2022-11-20T05:06:11;9.77;;;4.18;;
62633;SDS011;48704;50.534;6.442;2022-11-20T05:08:38;9.18;;;4.28;;
62633;SDS011;48704;50.534;6.442;2022-11-20T05:11:05;8.70;;;4.13;;
62633;SDS011;48704;50.534;6.442;2022-11-20T05:13:35;8.43;;;3.60;;
62633;SDS011;48704;50.534;6.442;2022-11-20T05:16:06;7.78;;;3.38;;
62633;SDS011;48704;50.534;6.442;2022-11-20T05:18:33;8.23;;;3.78;;
62633;SDS011;48704;50.534;6.442;2022-11-20T05:20:59;9.88;;;4.22;;
62633;SDS011;48704;50.534;6.442;2022-11-20T05:23:25;6.05;;;3.38;;
62633;SDS011;48704;50.534;6.442;2022-11-20T05:25:51;8.90;;;4.07;;
62633;SDS011;48704;50.534;6.442;2022-11-20T05:28:18;7.82;;;3.30;;
62633;SDS011;48704;50.534;6.442;2022-11-20T05:30:43;6.53;;;3.47;;
62633;SDS011;48704;50.534;6.442;2022-11-20T05:33:08;5.45;;;3.25;;
62633;SDS011;48704;50.534;6.442;2022-11-20T05:35:34;7.43;;;3.60;;
62633;SDS011;48704;50.534;6.442;2022-11-20T05:37:59;5.82;;;2.90;;
62633;SDS011;48704;50.534;6.442;2022-11-20T05:40:24;6.60;;;3.30;;
62633;SDS011;48704;50.534;6.442;2022-11-20T05:42:50;6.05;;;3.15;;
62633;SDS011;48704;50.534;6.442;2022-11-20T05:45:15;6.00;;;2.90;;
62633;SDS011;48704;50.534;6.442;2022-11-20T05:47:40;7.00;;;3.45;;
62633;SDS011;48704;50.534;6.442;2022-11-20T05:50:05;5.97;;;2.97;;
62633;SDS011;48704;50.534;6.442;2022-11-20T05:52:31;4.70;;;2.55;;
62633;SDS011;48704;50.534;6.442;2022-11-20T05:54:56;5.72;;;2.42;;
62633;SDS011;48704;50.534;6.442;2022-11-20T05:57:22;6.55;;;3.25;;
62633;SDS011;48704;50.534;6.442;2022-11-20T05:59:47;6.93;;;3.38;;
62633;SDS011;48704;50.534;6.442;2022-11-20T06:02:12;4.55;;;2.40;;
62633;SDS011;48704;50.534;6.442;2022-11-20T06:04:38;4.60;;;2.67;;
62633;SDS011;48704;50.534;6.442;2022-11-20T06:07:04;8.40;;;2.92;;
62633;SDS011;48704;50.534;6.442;2022-11-20T06:09:30;8.93;;;3.50;;
62633;SDS011;48704;50.534;6.442;2022-11-20T06:11:55;6.53;;;3.67;;
62633;SDS011;48704;50.534;6.442;2022-11-20T06:14:21;6.93;;;3.42;;
62633;SDS011;48704;50.534;6.442;2022-11-20T06:16:46;6.75;;;3.33;;
62633;SDS011;48704;50.534;6.442;2022-11-20T06:19:12;5.93;;;3.20;;
62633;SDS011;48704;50.534;6.442;2022-11-20T06:21:37;5.28;;;2.78;;
62633;SDS011;48704;50.534;6.442;2022-11-20T06:24:02;7.68;;;3.05;;
62633;SDS011;48704;50.534;6.442;2022-11-20T06:26:28;8.68;;;3.38;;
62633;SDS011;48704;50.534;6.442;2022-11-20T06:28:53;6.30;;;3.08;;
62633;SDS011;48704;50.534;6.442;2022-11-20T06:31:21;9.38;;;4.10;;
62633;SDS011;48704;50.534;6.442;2022-11-20T06:33:48;7.07;;;3.38;;
62633;SDS011;48704;50.534;6.442;2022-11-20T06:36:15;8.40;;;3.08;;
62633;SDS011;48704;50.534;6.442;2022-11-20T06:38:43;6.97;;;3.30;;
62633;SDS011;48704;50.534;6.442;2022-11-20T06:41:13;6.25;;;2.83;;
62633;SDS011;48704;50.534;6.442;2022-11-20T06:43:40;5.35;;;2.78;;
62633;SDS011;48704;50.534;6.442;2022-11-20T06:46:05;9.57;;;4.32;;
62633;SDS011;48704;50.534;6.442;2022-11-20T06:48:31;9.65;;;4.45;;
62633;SDS011;48704;50.534;6.442;2022-11-20T06:50:57;7.50;;;4.00;;
62633;SDS011;48704;50.534;6.442;2022-11-20T06:53:23;9.82;;;4.07;;
62633;SDS011;48704;50.534;6.442;2022-11-20T06:55:49;8.10;;;4.55;;
62633;SDS011;48704;50.534;6.442;2022-11-20T06:58:16;10.23;;;4.22;;
62633;SDS011;48704;50.534;6.442;2022-11-20T07:00:43;10.05;;;4.55;;
62633;SDS011;48704;50.534;6.442;2022-11-20T07:03:09;9.00;;;4.80;;
62633;SDS011;48704;50.534;6.442;2022-11-20T07:05:36;8.70;;;4.00;;
62633;SDS011;48704;50.534;6.442;2022-11-20T07:08:02;8.07;;;4.47;;
62633;SDS011;48704;50.534;6.442;2022-11-20T07:10:28;12.50;;;4.90;;
62633;SDS011;48704;50.534;6.442;2022-11-20T07:12:53;10.55;;;4.25;;
62633;SDS011;48704;50.534;6.442;2022-11-20T07:15:19;11.07;;;4.82;;
62633;SDS011;48704;50.534;6.442;2022-11-20T07:17:46;10.30;;;5.00;;
62633;SDS011;48704;50.534;6.442;2022-11-20T07:20:12;10.13;;;4.55;;
62633;SDS011;48704;50.534;6.442;2022-11-20T07:22:38;10.70;;;4.43;;
62633;SDS011;48704;50.534;6.442;2022-11-20T07:25:04;11.25;;;5.03;;
62633;SDS011;48704;50.534;6.442;2022-11-20T07:27:30;10.52;;;5.50;;
62633;SDS011;48704;50.534;6.442;2022-11-20T07:29:55;10.20;;;5.00;;
62633;SDS011;48704;50.534;6.442;2022-11-20T07:32:21;11.07;;;5.35;;
62633;SDS011;48704;50.534;6.442;2022-11-20T07:34:46;10.38;;;5.15;;
62633;SDS011;48704;50.534;6.442;2022-11-20T07:37:12;12.35;;;5.68;;
62633;SDS011;48704;50.534;6.442;2022-11-20T07:39:37;11.45;;;5.07;;
62633;SDS011;48704;50.534;6.442;2022-11-20T07:42:02;12.05;;;5.70;;
62633;SDS011;48704;50.534;6.442;2022-11-20T07:44:28;11.82;;;5.80;;
62633;SDS011;48704;50.534;6.442;2022-11-20T07:46:53;11.75;;;6.25;;
62633;SDS011;48704;50.534;6.442;2022-11-20T07:49:18;12.32;;;6.05;;
62633;SDS011;48704;50.534;6.442;2022-11-20T07:51:44;13.25;;;6.70;;
62633;SDS011;48704;50.534;6.442;2022-11-20T07:54:09;14.27;;;6.63;;
62633;SDS011;48704;50.534;6.442;2022-11-20T07:56:34;16.05;;;8.15;;
62633;SDS011;48704;50.534;6.442;2022-11-20T07:59:00;15.15;;;7.22;;
62633;SDS011;48704;50.534;6.442;2022-11-20T08:01:25;19.42;;;8.18;;
62633;SDS011;48704;50.534;6.442;2022-11-20T08:03:50;12.52;;;6.93;;
62633;SDS011;48704;50.534;6.442;2022-11-20T08:06:15;17.95;;;8.30;;
62633;SDS011;48704;50.534;6.442;2022-11-20T08:08:41;19.38;;;8.30;;
62633;SDS011;48704;50.534;6.442;2022-11-20T08:11:06;14.98;;;7.07;;
62633;SDS011;48704;50.534;6.442;2022-11-20T08:13:50;20.98;;;8.65;;
62633;SDS011;48704;50.534;6.442;2022-11-20T08:16:34;19.13;;;8.88;;
62633;SDS011;48704;50.534;6.442;2022-11-20T08:19:00;15.98;;;7.97;;
62633;SDS011;48704;50.534;6.442;2022-11-20T08:21:25;19.55;;;8.95;;
62633;SDS011;48704;50.534;6.442;2022-11-20T08:23:50;19.08;;;8.07;;
62633;SDS011;48704;50.534;6.442;2022-11-20T08:26:16;17.10;;;8.18;;
62633;SDS011;48704;50.534;6.442;2022-11-20T08:28:41;19.00;;;8.27;;
62633;SDS011;48704;50.534;6.442;2022-11-20T08:31:06;18.10;;;8.45;;
62633;SDS011;48704;50.534;6.442;2022-11-20T08:33:32;19.42;;;8.30;;
62633;SDS011;48704;50.534;6.442;2022-11-20T08:36:04;16.60;;;8.27;;
62633;SDS011;48704;50.534;6.442;2022-11-20T08:38:30;18.83;;;9.13;;
62633;SDS011;48704;50.534;6.442;2022-11-20T08:40:56;16.55;;;8.43;;
62633;SDS011;48704;50.534;6.442;2022-11-20T08:43:41;18.50;;;8.18;;
62633;SDS011;48704;50.534;6.442;2022-11-20T08:46:06;18.05;;;8.43;;
62633;SDS011;48704;50.534;6.442;2022-11-20T08:48:32;17.00;;;8.63;;
62633;SDS011;48704;50.534;6.442;2022-11-20T08:50:58;17.08;;;8.15;;
62633;SDS011;48704;50.534;6.442;2022-11-20T08:53:24;16.52;;;7.93;;
62633;SDS011;48704;50.534;6.442;2022-11-20T08:55:49;18.75;;;8.25;;
62633;SDS011;48704;50.534;6.442;2022-11-20T08:58:15;17.08;;;8.52;;
62633;SDS011;48704;50.534;6.442;2022-11-20T09:00:40;17.00;;;8.05;;
62633;SDS011;48704;50.534;6.442;2022-11-20T09:03:05;20.92;;;8.90;;
62633;SDS011;48704;50.534;6.442;2022-11-20T09:05:31;16.52;;;7.55;;
62633;SDS011;48704;50.534;6.442;2022-11-20T09:07:56;17.42;;;8.30;;
62633;SDS011;48704;50.534;6.442;2022-11-20T09:10:22;15.85;;;7.03;;
62633;SDS011;48704;50.534;6.442;2022-11-20T09:12:51;16.95;;;7.57;;
62633;SDS011;48704;50.534;6.442;2022-11-20T09:15:17;17.23;;;7.47;;
62633;SDS011;48704;50.534;6.442;2022-11-20T09:17:50;13.60;;;6.43;;
62633;SDS011;48704;50.534;6.442;2022-11-20T09:20:26;16.15;;;6.47;;
62633;SDS011;48704;50.534;6.442;2022-11-20T09:22:53;15.73;;;6.80;;
62633;SDS011;48704;50.534;6.442;2022-11-20T09:25:19;12.30;;;5.63;;
62633;SDS011;48704;50.534;6.442;2022-11-20T09:27:44;12.30;;;5.88;;
62633;SDS011;48704;50.534;6.442;2022-11-20T09:30:11;14.73;;;7.07;;
62633;SDS011;48704;50.534;6.442;2022-11-20T09:32:40;13.15;;;5.75;;
62633;SDS011;48704;50.534;6.442;2022-11-20T09:35:06;11.93;;;5.90;;
62633;SDS011;48704;50.534;6.442;2022-11-20T09:37:32;11.00;;;4.97;;
62633;SDS011;48704;50.534;6.442;2022-11-20T09:39:58;10.77;;;5.07;;
62633;SDS011;48704;50.534;6.442;2022-11-20T09:48:03;10.23;;;5.65;;
62633;SDS011;48704;50.534;6.442;2022-11-20T09:50:48;14.75;;;5.65;;
62633;SDS011;48704;50.534;6.442;2022-11-20T09:56:00;12.93;;;6.15;;
62633;SDS011;48704;50.534;6.442;2022-11-20T09:58:40;12.88;;;5.57;;
62633;SDS011;48704;50.534;6.442;2022-11-20T10:01:16;13.73;;;6.07;;
62633;SDS011;48704;50.534;6.442;2022-11-20T10:03:51;12.35;;;6.22;;
62633;SDS011;48704;50.534;6.442;2022-11-20T10:06:49;10.30;;;4.97;;
62633;SDS011;48704;50.534;6.442;2022-11-20T10:17:03;10.18;;;4.82;;
62633;SDS011;48704;50.534;6.442;2022-11-20T10:19:45;12.18;;;5.18;;
62633;SDS011;48704;50.534;6.442;2022-11-20T10:22:22;15.35;;;5.80;;
62633;SDS011;48704;50.534;6.442;2022-11-20T10:24:56;14.90;;;6.22;;
62633;SDS011;48704;50.534;6.442;2022-11-20T10:27:35;15.45;;;6.28;;
62633;SDS011;48704;50.534;6.442;2022-11-20T10:32:35;17.13;;;6.63;;
62633;SDS011;48704;50.534;6.442;2022-11-20T10:35:10;18.30;;;6.57;;
62633;SDS011;48704;50.534;6.442;2022-11-20T10:37:44;11.30;;;5.20;;
62633;SDS011;48704;50.534;6.442;2022-11-20T10:40:27;14.25;;;5.47;;
62633;SDS011;48704;50.534;6.442;2022-11-20T10:43:00;17.55;;;6.40;;
62633;SDS011;48704;50.534;6.442;2022-11-20T10:50:32;14.93;;;5.85;;
62633;SDS011;48704;50.534;6.442;2022-11-20T10:53:04;12.75;;;5.20;;
62633;SDS011;48704;50.534;6.442;2022-11-20T10:55:50;12.63;;;5.15;;
62633;SDS011;48704;50.534;6.442;2022-11-20T10:58:27;13.55;;;6.15;;
62633;SDS011;48704;50.534;6.442;2022-11-20T11:01:18;13.55;;;5.55;;
62633;SDS011;48704;50.534;6.442;2022-11-20T11:03:48;12.38;;;5.50;;
62633;SDS011;48704;50.534;6.442;2022-11-20T11:06:22;13.68;;;5.20;;
62633;SDS011;48704;50.534;6.442;2022-11-20T11:08:55;14.68;;;4.95;;
62633;SDS011;48704;50.534;6.442;2022-11-20T11:11:24;16.35;;;5.18;;
62633;SDS011;48704;50.534;6.442;2022-11-20T11:13:53;27.95;;;5.55;;
62633;SDS011;48704;50.534;6.442;2022-11-20T11:19:21;8.23;;;3.75;;
62633;SDS011;48704;50.534;6.442;2022-11-20T11:22:05;8.65;;;3.75;;
62633;SDS011;48704;50.534;6.442;2022-11-20T11:24:43;7.65;;;3.50;;
62633;SDS011;48704;50.534;6.442;2022-11-20T11:27:17;7.20;;;3.13;;
62633;SDS011;48704;50.534;6.442;2022-11-20T11:29:42;6.78;;;3.75;;
62633;SDS011;48704;50.534;6.442;2022-11-20T11:32:12;5.90;;;2.85;;
62633;SDS011;48704;50.534;6.442;2022-11-20T11:34:40;6.50;;;3.63;;
62633;SDS011;48704;50.534;6.442;2022-11-20T11:37:39;13.50;;;3.30;;
62633;SDS011;48704;50.534;6.442;2022-11-20T11:39:59;9.10;;;2.90;;
62633;SDS011;48704;50.534;6.442;2022-11-20T11:42:25;9.63;;;3.65;;
62633;SDS011;48704;50.534;6.442;2022-11-20T11:44:53;7.78;;;3.47;;
62633;SDS011;48704;50.534;6.442;2022-11-20T11:47:51;9.25;;;3.10;;
62633;SDS011;48704;50.534;6.442;2022-11-20T11:50:20;8.90;;;2.42;;
62633;SDS011;48704;50.534;6.442;2022-11-20T11:53:02;8.20;;;2.90;;
62633;SDS011;48704;50.534;6.442;2022-11-20T12:01:01;8.27;;;2.92;;
62633;SDS011;48704;50.534;6.442;2022-11-20T12:06:06;6.68;;;3.15;;
62633;SDS011;48704;50.534;6.442;2022-11-20T12:08:48;6.22;;;3.17;;
62633;SDS011;48704;50.534;6.442;2022-11-20T12:11:20;5.45;;;2.40;;
62633;SDS011;48704;50.534;6.442;2022-11-20T12:16:41;4.65;;;3.00;;
62633;SDS011;48704;50.534;6.442;2022-11-20T12:19:11;9.95;;;2.58;;
62633;SDS011;48704;50.534;6.442;2022-11-20T12:21:41;7.13;;;2.78;;
62633;SDS011;48704;50.534;6.442;2022-11-20T12:40:35;6.57;;;1.90;;
62633;SDS011;48704;50.534;6.442;2022-11-20T12:43:22;5.20;;;1.90;;
62633;SDS011;48704;50.534;6.442;2022-11-20T12:51:47;6.28;;;1.60;;
62633;SDS011;48704;50.534;6.442;2022-11-20T12:59:49;5.20;;;1.90;;
62633;SDS011;48704;50.534;6.442;2022-11-20T13:02:40;7.85;;;1.95;;
62633;SDS011;48704;50.534;6.442;2022-11-20T13:08:24;5.85;;;1.98;;
62633;SDS011;48704;50.534;6.442;2022-11-20T13:14:00;3.88;;;1.85;;
62633;SDS011;48704;50.534;6.442;2022-11-20T13:16:59;4.25;;;2.10;;
62633;SDS011;48704;50.534;6.442;2022-11-20T13:19:33;3.40;;;1.48;;
62633;SDS011;48704;50.534;6.442;2022-11-20T13:21:59;4.80;;;1.80;;
62633;SDS011;48704;50.534;6.442;2022-11-20T13:24:29;4.70;;;1.90;;
62633;SDS011;48704;50.534;6.442;2022-11-20T13:27:05;4.70;;;1.80;;
62633;SDS011;48704;50.534;6.442;2022-11-20T13:29:45;3.22;;;1.83;;
62633;SDS011;48704;50.534;6.442;2022-11-20T13:34:54;2.63;;;1.42;;
62633;SDS011;48704;50.534;6.442;2022-11-20T13:37:29;2.97;;;1.77;;
62633;SDS011;48704;50.534;6.442;2022-11-20T13:40:10;4.68;;;1.45;;
62633;SDS011;48704;50.534;6.442;2022-11-20T13:42:44;4.47;;;1.60;;
62633;SDS011;48704;50.534;6.442;2022-11-20T13:45:27;6.55;;;1.50;;
62633;SDS011;48704;50.534;6.442;2022-11-20T13:47:54;5.80;;;1.83;;
62633;SDS011;48704;50.534;6.442;2022-11-20T13:50:27;5.13;;;1.85;;
62633;SDS011;48704;50.534;6.442;2022-11-20T13:53:04;4.13;;;1.50;;
62633;SDS011;48704;50.534;6.442;2022-11-20T13:56:10;4.07;;;1.67;;
62633;SDS011;48704;50.534;6.442;2022-11-20T13:58:46;6.30;;;2.00;;
62633;SDS011;48704;50.534;6.442;2022-11-20T14:01:33;5.75;;;1.90;;
62633;SDS011;48704;50.534;6.442;2022-11-20T14:03:59;3.03;;;1.80;;
62633;SDS011;48704;50.534;6.442;2022-11-20T14:06:32;4.72;;;2.08;;
62633;SDS011;48704;50.534;6.442;2022-11-20T14:09:03;6.07;;;2.10;;
62633;SDS011;48704;50.534;6.442;2022-11-20T14:11:29;3.75;;;1.80;;
62633;SDS011;48704;50.534;6.442;2022-11-20T14:16:21;5.75;;;1.98;;
62633;SDS011;48704;50.534;6.442;2022-11-20T14:18:48;3.38;;;1.85;;
62633;SDS011;48704;50.534;6.442;2022-11-20T14:21:27;4.35;;;2.05;;
62633;SDS011;48704;50.534;6.442;2022-11-20T14:24:02;3.53;;;2.10;;
62633;SDS011;48704;50.534;6.442;2022-11-20T14:26:31;4.95;;;2.45;;
62633;SDS011;48704;50.534;6.442;2022-11-20T14:28:57;5.82;;;2.63;;
62633;SDS011;48704;50.534;6.442;2022-11-20T14:31:25;4.47;;;2.33;;
62633;SDS011;48704;50.534;6.442;2022-11-20T14:33:54;5.20;;;2.70;;
62633;SDS011;48704;50.534;6.442;2022-11-20T14:36:21;5.40;;;2.65;;
62633;SDS011;48704;50.534;6.442;2022-11-20T14:38:50;5.38;;;2.83;;
62633;SDS011;48704;50.534;6.442;2022-11-20T14:41:23;6.03;;;2.13;;
62633;SDS011;48704;50.534;6.442;2022-11-20T14:43:58;6.82;;;3.50;;
62633;SDS011;48704;50.534;6.442;2022-11-20T14:46:27;5.68;;;2.33;;
62633;SDS011;48704;50.534;6.442;2022-11-20T14:48:56;4.05;;;2.40;;
62633;SDS011;48704;50.534;6.442;2022-11-20T14:51:32;7.22;;;2.20;;
62633;SDS011;48704;50.534;6.442;2022-11-20T14:54:18;8.57;;;2.67;;
62633;SDS011;48704;50.534;6.442;2022-11-20T14:56:55;3.38;;;2.65;;
62633;SDS011;48704;50.534;6.442;2022-11-20T14:59:25;9.23;;;2.75;;
62633;SDS011;48704;50.534;6.442;2022-11-20T15:01:59;9.00;;;2.85;;
62633;SDS011;48704;50.534;6.442;2022-11-20T15:04:27;6.35;;;2.22;;
62633;SDS011;48704;50.534;6.442;2022-11-20T15:06:56;4.53;;;2.38;;
62633;SDS011;48704;50.534;6.442;2022-11-20T15:09:22;8.75;;;2.70;;
62633;SDS011;48704;50.534;6.442;2022-11-20T15:11:55;4.03;;;2.38;;
62633;SDS011;48704;50.534;6.442;2022-11-20T15:14:22;4.45;;;2.20;;
62633;SDS011;48704;50.534;6.442;2022-11-20T15:16:49;3.47;;;1.85;;
62633;SDS011;48704;50.534;6.442;2022-11-20T15:19:20;5.80;;;2.30;;
62633;SDS011;48704;50.534;6.442;2022-11-20T15:21:46;4.65;;;2.28;;
62633;SDS011;48704;50.534;6.442;2022-11-20T15:24:12;7.38;;;2.10;;
62633;SDS011;48704;50.534;6.442;2022-11-20T15:26:37;6.97;;;2.10;;
62633;SDS011;48704;50.534;6.442;2022-11-20T15:29:05;4.60;;;2.10;;
62633;SDS011;48704;50.534;6.442;2022-11-20T15:31:43;6.20;;;2.38;;
62633;SDS011;48704;50.534;6.442;2022-11-20T15:34:13;3.75;;;1.80;;
62633;SDS011;48704;50.534;6.442;2022-11-20T15:36:40;5.30;;;1.65;;
62633;SDS011;48704;50.534;6.442;2022-11-20T15:39:06;1.65;;;1.08;;
62633;SDS011;48704;50.534;6.442;2022-11-20T15:41:32;2.22;;;1.30;;
62633;SDS011;48704;50.534;6.442;2022-11-20T15:44:02;5.93;;;1.80;;
62633;SDS011;48704;50.534;6.442;2022-11-20T15:46:28;3.85;;;1.45;;
62633;SDS011;48704;50.534;6.442;2022-11-20T15:48:59;3.50;;;1.30;;
62633;SDS011;48704;50.534;6.442;2022-11-20T15:51:33;2.95;;;1.40;;
62633;SDS011;48704;50.534;6.442;2022-11-20T15:53:59;2.65;;;1.27;;
62633;SDS011;48704;50.534;6.442;2022-11-20T15:56:25;2.53;;;1.10;;
62633;SDS011;48704;50.534;6.442;2022-11-20T15:58:51;3.15;;;1.48;;
62633;SDS011;48704;50.534;6.442;2022-11-20T16:01:17;1.73;;;0.93;;
62633;SDS011;48704;50.534;6.442;2022-11-20T16:03:44;2.85;;;1.08;;
62633;SDS011;48704;50.534;6.442;2022-11-20T16:06:10;2.92;;;0.80;;
62633;SDS011;48704;50.534;6.442;2022-11-20T16:08:35;2.00;;;0.80;;
62633;SDS011;48704;50.534;6.442;2022-11-20T16:11:01;1.80;;;0.90;;
62633;SDS011;48704;50.534;6.442;2022-11-20T16:13:27;1.60;;;0.65;;
62633;SDS011;48704;50.534;6.442;2022-11-20T16:16:32;1.65;;;1.00;;